Portada
METAR-TAF:

METAR-TAF

Aeropuertos :

Angulema, Francia

latitud: 45-43-46N, longitud: 00-13-08E, altitud: 132 m

Observación

El informe se hizo hace 20 minutos, a las 19:30 UTC
Viento 4 kt del norte
Temperatura 14°C
Humedad 67%
Presión 1027 hPa
Visibilidad 10 km o más
sin nubes por debajo de 1500 m y sin presencia de cumulonimbus.

METAR: LFBU 281930Z AUTO 36004KT CAVOK 14/08 Q1027 NOSIG

Hora: 21:50 (19:50 UTC)

Pronóstico

El informe se hizo hace 2 horas y 50 minutos, a las 17:00 UTC
Pronóstico válido del 28 a las 18 UTC al 29 a las 18 UTC
Viento 5 kt del oeste-noroeste
Visibilidad 10 km o más
Nubes dispersas a una altura de 4000 ft
Probabilidad 40%
del 29 a las 02 UTC al 29 a las 07 UTC
Niebla baja

TAF: LFBU 281700Z 2818/2918 30005KT 9999 SCT040 PROB40 2902/2907 MIFG

Observaciones y pronósticos meteorológicos de más de 4000 aeropuertos (mensajes METAR y TAF).

Los puntos amarillos y rojos representan las estaciones disponibles.

Ponga el ratón en el punto deseado para ver el nombre de la estación.

Haga clic para ver las observaciones y los pronósticos meteorológicos.

Para cambiar el mapa : haga clic en los botones verdes con una cruz de color negro para hacer un zoom, en el botón verde con un guión para alejar o en las flechas verdes para mapas adyacentes.


METAR-TAF: